Overview Statistics Trail Chart Weather Telemetry Raw packets
 

This is the latest recevied weather packets stored in our database for station/object KG5WBN. If no packets are shown the sender has not sent any weather packets the latest 10 day(s).

<< 2 3 4 5 6 7 8 >>
Time Temp. Humidity Pressure Rain* Wind** Luminosity Snow
1788552239 31.67° C 51% 1012.2 hPa 0 mm - 393 W/m² -
1788551934 32.22° C 54% 1012.2 hPa 0 mm - 448 W/m² -
1788551632 30.56° C 56% 1012.5 hPa 0 mm - 400 W/m² -
1788551327 31.11° C 54% 1012.5 hPa 0 mm - 96 W/m² -
1788551026 31.67° C 55% 1012.5 hPa 0 mm - 321 W/m² -
1788550722 30.56° C 55% 1012.9 hPa 0 mm - 245 W/m² -
1788550417 31.11° C 56% 1012.9 hPa 0 mm - 406 W/m² -
1788550112 31.67° C 55% 1012.9 hPa 0 mm - 155 W/m² -
1788549807 31.11° C 58% 1012.9 hPa 0 mm - 394 W/m² -
1788549504 30.56° C 61% 1013.2 hPa 0 mm - 426 W/m² -
1788549201 30.56° C 61% 1013.2 hPa 0 mm - 410 W/m² -
1788548897 31.11° C 57% 1013.2 hPa 0 mm - 111 W/m² -
1788548592 31.67° C 57% 1013.5 hPa 0 mm - 391 W/m² -
1788548288 31.11° C 61% 1013.2 hPa 0 mm - 391 W/m² -
1788547984 30.56° C 62% 1013.5 hPa 0 mm - 389 W/m² -
1788547683 30° C 62% 1013.5 hPa 0 mm - 385 W/m² -
1788547378 30° C 62% 1013.5 hPa 0 mm - 174 W/m² -
1788547073 31.11° C 61% 1013.9 hPa 0 mm - 433 W/m² -
1788546768 30.56° C 62% 1013.9 hPa 0 mm - 441 W/m² -
1788546463 30° C 63% 1013.9 hPa 0 mm - 132 W/m² -
1788546164 30.56° C 62% 1014.2 hPa 0 mm - 414 W/m² -
1788545854 30.56° C 62% 1013.9 hPa 0 mm - 402 W/m² -
1788545554 30° C 63% 1013.9 hPa 0 mm - 375 W/m² -
1788545249 30.56° C 62% 1014.2 hPa 0 mm - 431 W/m² -
1788544944 30° C 63% 1014.2 hPa 0 mm - 408 W/m² -

* Rain latest hour (hover to see other rain measurements)
** Current wind speed in m/s (hover to see current wind gust speed)